createdAt,value
2018-06-21T00:00:47.748Z,19.67
2018-06-21T00:01:47.704Z,19.62
2018-06-21T00:03:40.495Z,19.78
2018-06-21T00:04:40.418Z,19.75
2018-06-21T00:06:33.187Z,19.71
2018-06-21T00:07:33.125Z,19.71
2018-06-21T00:09:25.932Z,19.79
2018-06-21T00:10:25.862Z,19.75
2018-06-21T00:12:18.681Z,19.72
2018-06-21T00:13:18.588Z,19.78
2018-06-21T00:15:11.386Z,19.75
2018-06-21T00:16:11.299Z,19.70
2018-06-21T00:18:04.120Z,19.70
2018-06-21T00:19:04.015Z,19.58
2018-06-21T00:20:56.813Z,19.58
2018-06-21T00:21:56.740Z,19.53
2018-06-21T00:23:49.542Z,19.49
2018-06-21T00:24:49.475Z,19.39
2018-06-21T00:26:42.258Z,19.40
2018-06-21T00:27:42.199Z,19.46
2018-06-21T00:29:34.987Z,19.43
2018-06-21T00:30:34.924Z,19.31
2018-06-21T00:32:27.700Z,19.34
2018-06-21T00:33:27.646Z,19.32
2018-06-21T00:35:20.428Z,19.23
2018-06-21T00:36:20.357Z,19.31
2018-06-21T00:38:13.148Z,19.17
2018-06-21T00:39:13.071Z,19.10
2018-06-21T00:41:05.865Z,19.10
2018-06-21T00:42:05.788Z,19.07
2018-06-21T00:43:58.622Z,19.17
2018-06-21T00:44:58.545Z,19.10
2018-06-21T00:46:51.331Z,19.16
2018-06-21T00:47:51.269Z,19.13
2018-06-21T00:49:44.079Z,19.15
2018-06-21T00:50:44.008Z,19.28
2018-06-21T00:52:36.790Z,19.12
2018-06-21T00:53:36.721Z,19.13
2018-06-21T00:55:29.512Z,19.13
2018-06-21T00:56:29.441Z,19.17
2018-06-21T00:58:22.223Z,19.31
2018-06-21T00:59:22.154Z,19.27
2018-06-21T01:01:15.456Z,19.23
2018-06-21T01:02:15.363Z,19.25
2018-06-21T01:04:08.164Z,19.30
2018-06-21T01:05:08.107Z,19.27
2018-06-21T01:07:00.913Z,19.39
2018-06-21T01:08:00.838Z,19.42
2018-06-21T01:09:53.637Z,19.27
2018-06-21T01:10:53.564Z,19.30
2018-06-21T01:12:46.342Z,19.02
2018-06-21T01:13:46.287Z,18.96
2018-06-21T01:15:39.078Z,19.06
2018-06-21T01:16:39.017Z,19.10
2018-06-21T01:18:31.788Z,19.09
2018-06-21T01:19:31.730Z,19.02
2018-06-21T01:21:24.562Z,19.16
2018-06-21T01:22:24.483Z,19.13
2018-06-21T01:24:17.272Z,19.17
2018-06-21T01:25:17.213Z,19.15
2018-06-21T01:27:10.011Z,19.12
2018-06-21T01:28:09.929Z,19.05
2018-06-21T01:30:02.732Z,18.96
2018-06-21T01:31:02.673Z,18.93
2018-06-21T01:32:55.455Z,18.89
2018-06-21T01:33:55.406Z,18.87
2018-06-21T01:35:48.220Z,18.87
2018-06-21T01:36:48.147Z,18.82
2018-06-21T01:38:40.920Z,18.65
2018-06-21T01:39:40.858Z,18.72
2018-06-21T01:41:33.663Z,18.65
2018-06-21T01:42:33.579Z,18.66
2018-06-21T01:44:26.356Z,18.57
2018-06-21T01:45:26.291Z,18.64
2018-06-21T01:47:19.110Z,18.56
2018-06-21T01:48:19.027Z,18.53
2018-06-21T01:50:11.848Z,18.66
2018-06-21T01:51:11.756Z,18.56
2018-06-21T01:53:04.536Z,18.71
2018-06-21T01:54:04.472Z,18.59
2018-06-21T01:55:57.286Z,18.54
2018-06-21T01:56:57.215Z,18.54
2018-06-21T01:58:50.068Z,18.50
2018-06-21T01:59:49.921Z,18.50
2018-06-21T02:01:42.734Z,18.46
2018-06-21T02:02:42.659Z,18.53
2018-06-21T02:04:35.452Z,18.41
2018-06-21T02:05:35.393Z,18.39
2018-06-21T02:07:28.173Z,18.39
2018-06-21T02:08:28.103Z,18.41
2018-06-21T02:10:20.899Z,18.50
2018-06-21T02:11:20.820Z,18.44
2018-06-21T02:13:13.601Z,18.60
2018-06-21T02:14:13.527Z,18.60
2018-06-21T02:16:06.319Z,18.76
2018-06-21T02:17:06.242Z,18.82
2018-06-21T02:18:59.031Z,18.84
2018-06-21T02:19:58.969Z,18.89
2018-06-21T02:21:51.773Z,18.79
2018-06-21T02:22:51.702Z,18.86
2018-06-21T02:24:44.480Z,18.97
2018-06-21T02:25:44.422Z,18.90
2018-06-21T02:27:37.217Z,18.87
2018-06-21T02:28:37.148Z,18.97
2018-06-21T02:30:29.924Z,18.89
2018-06-21T02:31:29.871Z,18.94
2018-06-21T02:33:22.666Z,18.89
2018-06-21T02:34:22.676Z,18.97
2018-06-21T02:36:15.376Z,18.84
2018-06-21T02:37:15.300Z,18.94
2018-06-21T02:39:08.093Z,18.90
2018-06-21T02:40:08.015Z,18.96
2018-06-21T02:42:00.811Z,18.94
2018-06-21T02:43:00.739Z,19.02
2018-06-21T02:44:53.556Z,19.07
2018-06-21T02:45:53.494Z,18.97
2018-06-21T02:47:46.301Z,19.07
2018-06-21T02:48:46.219Z,19.05
2018-06-21T02:50:38.997Z,19.02
2018-06-21T02:51:38.936Z,19.07
2018-06-21T02:53:31.725Z,19.17
2018-06-21T02:54:31.658Z,19.21
2018-06-21T02:56:24.437Z,19.17
2018-06-21T02:57:24.353Z,19.20
2018-06-21T02:59:17.153Z,19.25
2018-06-21T03:00:17.082Z,19.13
2018-06-21T03:02:09.877Z,19.21
2018-06-21T03:03:09.808Z,19.21
2018-06-21T03:05:02.577Z,19.23
2018-06-21T03:06:02.518Z,19.17
2018-06-21T03:07:55.327Z,19.21
2018-06-21T03:08:55.260Z,19.25
2018-06-21T03:10:48.524Z,19.20
2018-06-21T03:11:48.461Z,19.21
2018-06-21T03:13:41.268Z,19.21
2018-06-21T03:14:41.184Z,19.23
2018-06-21T03:16:34.128Z,19.23
2018-06-21T03:17:34.039Z,19.21
2018-06-21T03:19:26.818Z,19.16
2018-06-21T03:20:26.749Z,19.30
2018-06-21T03:22:19.544Z,19.28
2018-06-21T03:23:19.473Z,19.23
2018-06-21T03:25:12.245Z,19.25
2018-06-21T03:26:12.199Z,19.20
2018-06-21T03:28:04.975Z,19.17
2018-06-21T03:29:04.904Z,19.25
2018-06-21T03:30:57.709Z,19.24
2018-06-21T03:31:57.648Z,19.39
2018-06-21T03:33:50.426Z,19.30
2018-06-21T03:34:50.341Z,19.24
2018-06-21T03:36:43.110Z,19.17
2018-06-21T03:37:43.051Z,19.23
2018-06-21T03:39:35.843Z,19.23
2018-06-21T03:40:35.761Z,19.25
2018-06-21T03:42:28.571Z,19.39
2018-06-21T03:43:28.517Z,19.40
2018-06-21T03:45:21.319Z,19.38
2018-06-21T03:46:21.255Z,19.49
2018-06-21T03:48:14.051Z,19.46
2018-06-21T03:49:13.976Z,19.49
2018-06-21T03:51:06.760Z,19.52
2018-06-21T03:52:06.711Z,19.64
2018-06-21T03:53:59.528Z,19.65
2018-06-21T03:54:59.447Z,19.70
2018-06-21T03:56:52.235Z,19.71
2018-06-21T03:57:52.175Z,19.76
2018-06-21T03:59:45.002Z,19.83
2018-06-21T04:00:44.887Z,19.82
2018-06-21T04:02:37.658Z,19.95
2018-06-21T04:03:37.606Z,19.92
2018-06-21T04:05:30.393Z,20.04
2018-06-21T04:06:30.328Z,20.05
2018-06-21T04:08:23.105Z,20.23
2018-06-21T04:09:23.032Z,20.16
2018-06-21T04:11:15.834Z,20.19
2018-06-21T04:12:15.750Z,20.12
2018-06-21T04:14:08.594Z,20.22
2018-06-21T04:15:08.523Z,20.35
2018-06-21T04:17:01.321Z,20.38
2018-06-21T04:18:01.263Z,20.50
2018-06-21T04:19:54.118Z,20.56
2018-06-21T04:20:54.046Z,20.66
2018-06-21T04:22:46.821Z,20.73
2018-06-21T04:23:46.754Z,20.73
2018-06-21T04:25:39.545Z,20.88
2018-06-21T04:26:39.473Z,20.94
2018-06-21T04:28:32.257Z,20.98
2018-06-21T04:29:32.193Z,21.08
2018-06-21T04:31:24.989Z,21.19
2018-06-21T04:32:24.982Z,21.31
2018-06-21T04:34:17.747Z,21.33
2018-06-21T04:35:17.670Z,21.38
2018-06-21T04:37:10.531Z,21.42
2018-06-21T04:38:10.488Z,21.58
2018-06-21T04:40:03.262Z,21.73
2018-06-21T04:41:03.187Z,21.77
2018-06-21T04:42:55.993Z,22.02
2018-06-21T04:43:55.918Z,22.11
2018-06-21T04:45:48.774Z,22.33
2018-06-21T04:46:48.638Z,22.60
2018-06-21T04:48:41.445Z,23.53
2018-06-21T04:49:41.386Z,24.05
2018-06-21T04:51:34.145Z,25.17
2018-06-21T04:52:34.121Z,25.60
2018-06-21T04:54:26.886Z,26.54
2018-06-21T04:55:26.804Z,26.96
2018-06-21T04:57:19.602Z,27.45
2018-06-21T04:58:19.534Z,27.74
2018-06-21T05:00:12.341Z,27.95
2018-06-21T05:01:12.242Z,28.20
2018-06-21T05:03:05.082Z,28.46
2018-06-21T05:04:04.974Z,28.55
2018-06-21T05:05:57.757Z,28.30
2018-06-21T05:06:57.684Z,28.30
2018-06-21T05:08:50.491Z,28.69
2018-06-21T05:09:50.448Z,28.70
2018-06-21T05:11:43.246Z,28.40
2018-06-21T05:12:43.163Z,28.51
2018-06-21T05:14:35.968Z,28.51
2018-06-21T05:15:35.892Z,28.51
2018-06-21T05:17:28.688Z,28.85
2018-06-21T05:18:28.619Z,28.70
2018-06-21T05:20:21.448Z,28.70
2018-06-21T05:21:21.367Z,28.76
2018-06-21T05:23:14.161Z,29.08
2018-06-21T05:24:14.100Z,28.85
2018-06-21T05:26:06.893Z,29.03
2018-06-21T05:27:06.821Z,29.00
2018-06-21T05:28:59.604Z,28.61
2018-06-21T05:29:59.546Z,28.21
2018-06-21T05:31:52.372Z,28.21
2018-06-21T05:32:52.287Z,27.66
2018-06-21T05:34:45.111Z,27.98
2018-06-21T05:35:45.038Z,27.72
2018-06-21T05:37:37.817Z,26.96
2018-06-21T05:38:37.780Z,26.83
2018-06-21T05:40:30.541Z,26.44
2018-06-21T05:41:30.485Z,26.21
2018-06-21T05:43:23.266Z,26.01
2018-06-21T05:44:23.210Z,26.11
2018-06-21T05:46:15.997Z,26.44
2018-06-21T05:47:15.925Z,26.42
2018-06-21T05:49:08.710Z,25.96
2018-06-21T05:50:08.708Z,25.74
2018-06-21T05:52:01.449Z,25.61
2018-06-21T05:53:01.380Z,26.51
2018-06-21T05:54:54.172Z,26.88
2018-06-21T05:55:54.105Z,26.90
2018-06-21T05:57:46.986Z,28.13
2018-06-21T05:58:46.966Z,27.62
2018-06-21T06:00:39.723Z,28.25
2018-06-21T06:01:39.621Z,28.74
2018-06-21T06:03:32.398Z,29.21
2018-06-21T06:04:32.371Z,29.29
2018-06-21T06:06:25.157Z,29.11
2018-06-21T06:07:25.079Z,29.00
2018-06-21T06:09:17.887Z,27.65
2018-06-21T06:10:17.794Z,27.65
2018-06-21T06:12:10.616Z,27.33
2018-06-21T06:13:10.522Z,28.14
2018-06-21T06:15:03.306Z,28.88
2018-06-21T06:16:03.255Z,28.87
2018-06-21T06:17:56.051Z,28.91
2018-06-21T06:18:55.985Z,29.30
2018-06-21T06:20:48.799Z,29.25
2018-06-21T06:21:48.727Z,29.25
2018-06-21T06:23:41.526Z,29.45
2018-06-21T06:24:41.467Z,29.15
2018-06-21T06:26:34.297Z,28.64
2018-06-21T06:27:34.220Z,28.42
2018-06-21T06:29:27.022Z,28.60
2018-06-21T06:30:26.953Z,28.50
2018-06-21T06:32:19.778Z,28.83
2018-06-21T06:33:19.697Z,28.54
2018-06-21T06:35:12.527Z,27.48
2018-06-21T06:36:12.471Z,26.94
2018-06-21T06:38:05.276Z,27.09
2018-06-21T06:39:05.204Z,27.95
2018-06-21T06:40:58.026Z,28.69
2018-06-21T06:41:57.936Z,29.47
2018-06-21T06:43:50.747Z,30.11
2018-06-21T06:44:50.704Z,30.00
2018-06-21T06:46:43.525Z,30.67
2018-06-21T06:47:43.426Z,30.40
2018-06-21T06:49:36.207Z,29.89
2018-06-21T06:50:36.155Z,29.52
2018-06-21T06:52:29.026Z,29.07
2018-06-21T06:53:28.884Z,28.52
2018-06-21T06:55:21.679Z,28.17
2018-06-21T06:56:21.622Z,27.98
2018-06-21T06:58:14.415Z,27.69
2018-06-21T06:59:14.348Z,27.69
2018-06-21T07:01:07.146Z,27.72
2018-06-21T07:02:07.096Z,27.90
2018-06-21T07:03:59.915Z,27.68
2018-06-21T07:04:59.851Z,27.72
2018-06-21T07:06:52.698Z,28.51
2018-06-21T07:07:52.598Z,29.07
2018-06-21T07:09:45.407Z,29.66
2018-06-21T07:10:45.322Z,30.15
2018-06-21T07:12:38.116Z,30.64
2018-06-21T07:13:38.061Z,30.88
2018-06-21T07:15:30.837Z,30.15
2018-06-21T07:16:30.790Z,30.01
2018-06-21T07:18:23.584Z,29.29
2018-06-21T07:19:23.502Z,29.52
2018-06-21T07:21:16.323Z,29.54
2018-06-21T07:22:16.275Z,29.52
2018-06-21T07:24:09.111Z,29.54
2018-06-21T07:25:09.009Z,29.20
2018-06-21T07:27:02.293Z,29.21
2018-06-21T07:28:02.206Z,29.48
2018-06-21T07:29:54.995Z,29.48
2018-06-21T07:30:54.935Z,29.29
2018-06-21T07:32:47.761Z,29.03
2018-06-21T07:33:47.694Z,28.69
2018-06-21T07:35:40.464Z,28.54
2018-06-21T07:36:40.412Z,28.54
2018-06-21T07:38:33.214Z,28.43
2018-06-21T07:39:33.145Z,28.11
2018-06-21T07:41:25.926Z,27.98
2018-06-21T07:42:25.865Z,27.96
2018-06-21T07:44:18.688Z,28.17
2018-06-21T07:45:18.615Z,28.70
2018-06-21T07:47:11.406Z,29.73
2018-06-21T07:48:11.357Z,30.18
2018-06-21T07:50:04.156Z,29.49
2018-06-21T07:51:04.086Z,29.10
2018-06-21T07:52:56.920Z,28.70
2018-06-21T07:53:56.856Z,28.39
2018-06-21T07:55:49.636Z,28.80
2018-06-21T07:56:49.585Z,28.98
2018-06-21T07:58:42.366Z,28.80
2018-06-21T07:59:42.317Z,28.80
2018-06-21T08:01:35.091Z,28.42
2018-06-21T08:02:35.034Z,28.14
2018-06-21T08:04:27.870Z,27.93
2018-06-21T08:05:27.808Z,27.78
2018-06-21T08:07:20.606Z,27.55
2018-06-21T08:08:20.542Z,27.62
2018-06-21T08:10:13.368Z,27.35
2018-06-21T08:11:13.288Z,27.35
2018-06-21T08:13:06.077Z,27.50
2018-06-21T08:14:06.017Z,27.58
2018-06-21T08:15:58.794Z,27.74
2018-06-21T08:16:58.732Z,27.69
2018-06-21T08:18:51.577Z,28.08
2018-06-21T08:19:51.507Z,28.08
2018-06-21T08:21:44.295Z,28.01
2018-06-21T08:22:44.231Z,27.86
2018-06-21T08:24:37.058Z,28.01
2018-06-21T08:25:36.957Z,27.91
2018-06-21T08:27:29.739Z,27.87
2018-06-21T08:28:29.684Z,27.90
2018-06-21T08:30:22.487Z,27.87
2018-06-21T08:31:22.416Z,28.08
2018-06-21T08:33:15.224Z,28.05
2018-06-21T08:34:15.148Z,27.86
2018-06-21T08:36:07.919Z,27.52
2018-06-21T08:37:07.863Z,27.58
2018-06-21T08:39:00.685Z,27.38
2018-06-21T08:40:00.603Z,27.38
2018-06-21T08:41:53.404Z,27.35
2018-06-21T08:42:53.322Z,27.42
2018-06-21T08:44:46.332Z,27.39
2018-06-21T08:45:46.331Z,27.24
2018-06-21T08:47:39.090Z,27.12
2018-06-21T08:48:39.030Z,27.01
2018-06-21T08:50:31.844Z,26.88
2018-06-21T08:51:31.775Z,26.81
2018-06-21T08:53:24.640Z,26.90
2018-06-21T08:54:24.568Z,27.39
2018-06-21T08:56:17.394Z,28.67
2018-06-21T08:57:17.310Z,29.05
2018-06-21T08:59:10.170Z,29.54
2018-06-21T09:00:10.109Z,30.01
2018-06-21T09:02:02.893Z,29.55
2018-06-21T09:03:02.841Z,29.76
2018-06-21T09:04:55.658Z,30.15
2018-06-21T09:05:55.597Z,30.04
2018-06-21T09:07:48.385Z,30.34
2018-06-21T09:08:48.321Z,30.70
2018-06-21T09:10:41.119Z,30.64
2018-06-21T09:11:41.046Z,30.76
2018-06-21T09:13:33.831Z,31.32
2018-06-21T09:14:33.770Z,31.50
2018-06-21T09:16:26.564Z,31.35
2018-06-21T09:17:26.500Z,31.53
2018-06-21T09:19:19.302Z,31.69
2018-06-21T09:20:19.236Z,31.57
2018-06-21T09:22:12.019Z,31.53
2018-06-21T09:23:11.956Z,31.59
2018-06-21T09:25:04.830Z,31.64
2018-06-21T09:26:04.696Z,31.65
2018-06-21T09:27:57.482Z,31.75
2018-06-21T09:28:57.435Z,31.97
2018-06-21T09:30:50.232Z,31.98
2018-06-21T09:31:50.157Z,31.47
2018-06-21T09:33:42.942Z,31.03
2018-06-21T09:34:42.908Z,30.97
2018-06-21T09:36:35.714Z,31.00
2018-06-21T09:37:35.621Z,31.05
2018-06-21T09:39:28.409Z,30.78
2018-06-21T09:40:28.360Z,30.63
2018-06-21T09:42:21.153Z,30.23
2018-06-21T09:43:21.117Z,30.23
2018-06-21T09:45:13.897Z,30.56
2018-06-21T09:46:13.833Z,30.34
2018-06-21T09:48:06.631Z,30.38
2018-06-21T09:49:06.571Z,30.46
2018-06-21T09:50:59.380Z,31.03
2018-06-21T09:51:59.310Z,30.93
2018-06-21T09:53:52.183Z,30.94
2018-06-21T09:54:52.081Z,30.66
2018-06-21T09:56:44.916Z,30.57
2018-06-21T09:57:44.859Z,30.32
2018-06-21T09:59:37.663Z,29.64
2018-06-21T10:00:37.592Z,29.33
2018-06-21T10:02:30.409Z,28.91
2018-06-21T10:03:30.339Z,28.67
2018-06-21T10:05:23.168Z,28.25
2018-06-21T10:06:23.093Z,28.42
2018-06-21T10:08:15.907Z,28.50
2018-06-21T10:09:15.855Z,28.46
2018-06-21T10:11:08.632Z,28.50
2018-06-21T10:12:08.560Z,28.27
2018-06-21T10:14:01.383Z,28.01
2018-06-21T10:15:01.321Z,27.88
2018-06-21T10:16:54.125Z,27.68
2018-06-21T10:17:54.053Z,27.62
2018-06-21T10:19:46.878Z,27.52
2018-06-21T10:20:46.783Z,27.46
2018-06-21T10:22:39.587Z,27.21
2018-06-21T10:23:39.514Z,27.11
2018-06-21T10:25:32.327Z,26.93
2018-06-21T10:26:32.277Z,26.88
2018-06-21T10:28:25.091Z,26.86
2018-06-21T10:29:25.017Z,26.87
2018-06-21T10:31:17.819Z,26.69
2018-06-21T10:32:17.748Z,26.32
2018-06-21T10:34:10.526Z,25.63
2018-06-21T10:35:10.610Z,25.14
2018-06-21T10:37:03.267Z,24.29
2018-06-21T10:38:03.200Z,23.92
2018-06-21T10:39:56.007Z,23.12
2018-06-21T10:40:55.938Z,22.88
2018-06-21T10:42:48.736Z,22.57
2018-06-21T10:43:48.676Z,22.33
2018-06-21T10:45:41.468Z,22.20
2018-06-21T10:46:41.405Z,22.08
2018-06-21T10:48:34.207Z,21.99
2018-06-21T10:49:34.139Z,22.02
2018-06-21T10:51:26.984Z,21.98
2018-06-21T10:52:26.886Z,22.04
2018-06-21T10:54:19.685Z,22.04
2018-06-21T10:55:19.613Z,21.96
2018-06-21T10:57:12.410Z,21.85
2018-06-21T10:58:12.344Z,21.64
2018-06-21T11:00:05.125Z,21.52
2018-06-21T11:01:05.068Z,21.49
2018-06-21T11:02:57.854Z,21.63
2018-06-21T11:03:57.776Z,21.37
2018-06-21T11:05:50.580Z,21.13
2018-06-21T11:06:50.513Z,20.93
2018-06-21T11:08:43.348Z,20.79
2018-06-21T11:09:43.243Z,20.61
2018-06-21T11:11:36.008Z,20.48
2018-06-21T11:12:35.950Z,20.34
2018-06-21T11:14:28.749Z,19.95
2018-06-21T11:15:28.665Z,19.97
2018-06-21T11:17:21.528Z,19.71
2018-06-21T11:18:21.427Z,19.58
2018-06-21T11:20:14.306Z,19.61
2018-06-21T11:21:14.214Z,19.49
2018-06-21T11:23:07.013Z,19.53
2018-06-21T11:24:06.939Z,19.67
2018-06-21T11:25:59.724Z,19.61
2018-06-21T11:26:59.662Z,19.65
2018-06-21T11:28:52.498Z,19.71
2018-06-21T11:29:52.384Z,19.68
2018-06-21T11:31:45.168Z,19.70
2018-06-21T11:32:45.106Z,19.67
2018-06-21T11:34:37.948Z,19.85
2018-06-21T11:35:37.842Z,19.89
2018-06-21T11:37:30.636Z,19.94
2018-06-21T11:38:30.556Z,20.01
2018-06-21T11:40:23.359Z,20.02
2018-06-21T11:41:23.266Z,19.92
2018-06-21T11:43:16.090Z,19.85
2018-06-21T11:44:16.015Z,19.67
2018-06-21T11:46:08.867Z,19.70
2018-06-21T11:47:08.807Z,19.75
2018-06-21T11:49:01.609Z,19.94
2018-06-21T11:50:01.532Z,19.94
2018-06-21T11:51:54.307Z,19.95
2018-06-21T11:52:54.241Z,19.94
2018-06-21T11:54:47.047Z,19.80
2018-06-21T11:55:46.983Z,19.86
2018-06-21T11:57:39.744Z,19.80
2018-06-21T11:58:39.679Z,19.78
2018-06-21T12:00:32.471Z,19.78
2018-06-21T12:01:32.401Z,19.60
2018-06-21T12:03:25.213Z,19.39
2018-06-21T12:04:25.164Z,19.45
2018-06-21T12:06:17.904Z,19.30
2018-06-21T12:07:17.824Z,19.20
2018-06-21T12:09:10.621Z,19.09
2018-06-21T12:10:10.551Z,18.97
2018-06-21T12:12:03.358Z,18.87
2018-06-21T12:13:03.290Z,18.69
2018-06-21T12:14:56.087Z,18.54
2018-06-21T12:15:55.998Z,18.39
2018-06-21T12:17:48.781Z,18.19
2018-06-21T12:18:48.709Z,17.94
2018-06-21T12:20:41.529Z,17.57
2018-06-21T12:21:41.429Z,17.55
2018-06-21T12:23:34.308Z,17.53
2018-06-21T12:24:34.237Z,17.62
2018-06-21T12:26:27.035Z,17.63
2018-06-21T12:27:26.941Z,17.55
2018-06-21T12:29:19.726Z,17.46
2018-06-21T12:30:19.650Z,17.32
2018-06-21T12:32:12.506Z,17.25
2018-06-21T12:33:12.437Z,17.33
2018-06-21T12:35:05.240Z,17.35
2018-06-21T12:36:05.152Z,17.30
2018-06-21T12:37:57.954Z,17.06
2018-06-21T12:38:57.865Z,17.12
2018-06-21T12:40:50.712Z,17.21
2018-06-21T12:41:50.608Z,17.20
2018-06-21T12:43:43.505Z,17.05
2018-06-21T12:44:43.318Z,16.91
2018-06-21T12:46:36.104Z,16.92
2018-06-21T12:47:36.019Z,16.77
2018-06-21T12:49:28.838Z,17.06
2018-06-21T12:50:28.830Z,17.14
2018-06-21T12:52:21.544Z,17.30
2018-06-21T12:53:21.483Z,17.51
2018-06-21T12:55:14.283Z,17.83
2018-06-21T12:56:14.199Z,17.74
2018-06-21T12:58:07.003Z,17.76
2018-06-21T12:59:06.906Z,17.62
2018-06-21T13:00:59.718Z,17.58
2018-06-21T13:01:59.624Z,17.57
2018-06-21T13:03:52.391Z,17.53
2018-06-21T13:04:52.321Z,17.62
2018-06-21T13:06:45.131Z,17.54
2018-06-21T13:07:45.061Z,17.76
2018-06-21T13:09:37.853Z,17.92
2018-06-21T13:10:37.777Z,17.92
2018-06-21T13:12:30.536Z,17.74
2018-06-21T13:13:30.471Z,17.86
2018-06-21T13:15:23.315Z,18.01
2018-06-21T13:16:23.183Z,18.13
2018-06-21T13:18:15.958Z,18.13
2018-06-21T13:19:15.890Z,18.13
2018-06-21T13:21:08.665Z,18.23
2018-06-21T13:22:08.595Z,18.47
2018-06-21T13:24:01.404Z,18.71
2018-06-21T13:25:01.325Z,18.46
2018-06-21T13:26:54.130Z,18.64
2018-06-21T13:27:54.059Z,18.82
2018-06-21T13:29:46.874Z,19.09
2018-06-21T13:30:46.768Z,19.05
2018-06-21T13:32:39.547Z,18.74
2018-06-21T13:33:39.469Z,18.72
2018-06-21T13:35:32.259Z,18.71
2018-06-21T13:36:32.182Z,18.64
2018-06-21T13:38:24.987Z,18.68
2018-06-21T13:39:24.915Z,18.66
2018-06-21T13:41:17.717Z,18.50
2018-06-21T13:42:17.667Z,18.26
2018-06-21T13:44:10.511Z,18.20
2018-06-21T13:45:10.443Z,17.95
2018-06-21T13:47:03.257Z,17.71
2018-06-21T13:48:03.125Z,17.43
2018-06-21T13:49:55.906Z,17.09
2018-06-21T13:50:55.853Z,17.06
2018-06-21T13:52:48.645Z,17.07
2018-06-21T13:53:48.568Z,17.17
2018-06-21T13:55:41.414Z,17.20
2018-06-21T13:56:41.318Z,17.17
2018-06-21T13:58:34.115Z,17.25
2018-06-21T13:59:34.049Z,17.03
2018-06-21T14:01:26.831Z,17.12
2018-06-21T14:02:26.752Z,17.06
2018-06-21T14:04:19.635Z,17.21
2018-06-21T14:05:19.565Z,17.42
2018-06-21T14:07:12.382Z,17.65
2018-06-21T14:08:12.309Z,17.74
2018-06-21T14:10:05.076Z,17.62
2018-06-21T14:11:05.029Z,17.54
2018-06-21T14:12:57.873Z,17.58
2018-06-21T14:13:57.734Z,17.51
2018-06-21T14:15:50.556Z,17.58
2018-06-21T14:16:50.462Z,17.57
2018-06-21T14:18:43.291Z,17.33
2018-06-21T14:19:43.210Z,17.33
2018-06-21T14:21:35.992Z,17.12
2018-06-21T14:22:35.934Z,16.95
2018-06-21T14:24:28.720Z,16.85
2018-06-21T14:25:28.640Z,16.99
2018-06-21T14:27:21.464Z,16.77
2018-06-21T14:28:21.368Z,16.75
2018-06-21T14:30:14.143Z,16.96
2018-06-21T14:31:14.082Z,17.10
2018-06-21T14:33:06.901Z,17.14
2018-06-21T14:34:06.787Z,17.20
2018-06-21T14:35:59.576Z,17.36
2018-06-21T14:36:59.508Z,17.49
2018-06-21T14:38:52.330Z,17.89
2018-06-21T14:39:52.249Z,18.11
2018-06-21T14:41:45.006Z,18.10
2018-06-21T14:42:44.937Z,18.09
2018-06-21T14:44:37.727Z,18.17
2018-06-21T14:45:37.663Z,18.10
2018-06-21T14:47:30.440Z,17.84
2018-06-21T14:48:30.378Z,17.84
2018-06-21T14:50:23.217Z,17.79
2018-06-21T14:51:23.111Z,17.83
2018-06-21T14:53:15.946Z,17.77
2018-06-21T14:54:15.859Z,17.68
2018-06-21T14:56:08.620Z,17.66
2018-06-21T14:57:08.618Z,17.71
2018-06-21T14:59:01.380Z,17.68
2018-06-21T15:00:01.286Z,17.58
2018-06-21T15:01:54.066Z,17.66
2018-06-21T15:02:53.997Z,17.68
2018-06-21T15:04:46.785Z,17.77
2018-06-21T15:05:46.725Z,17.91
2018-06-21T15:07:39.471Z,17.71
2018-06-21T15:08:39.407Z,17.91
2018-06-21T15:10:32.197Z,18.01
2018-06-21T15:11:32.120Z,18.04
2018-06-21T15:13:24.930Z,17.96
2018-06-21T15:14:24.855Z,18.01
2018-06-21T15:16:17.598Z,18.10
2018-06-21T15:17:17.537Z,18.23
2018-06-21T15:19:10.367Z,18.10
2018-06-21T15:20:10.362Z,18.10
2018-06-21T15:22:03.202Z,18.16
2018-06-21T15:23:03.100Z,18.17
2018-06-21T15:24:55.895Z,18.23
2018-06-21T15:25:55.816Z,17.99
2018-06-21T15:27:48.598Z,18.11
2018-06-21T15:28:48.524Z,18.13
2018-06-21T15:30:41.343Z,18.28
2018-06-21T15:31:41.264Z,18.32
2018-06-21T15:33:34.047Z,18.41
2018-06-21T15:34:33.985Z,18.50
2018-06-21T15:36:26.781Z,18.39
2018-06-21T15:37:26.701Z,18.34
2018-06-21T15:39:19.498Z,18.17
2018-06-21T15:40:19.415Z,18.13
2018-06-21T15:42:12.195Z,18.21
2018-06-21T15:43:12.130Z,18.29
2018-06-21T15:45:04.951Z,18.11
2018-06-21T15:46:04.875Z,18.11
2018-06-21T15:47:57.666Z,18.14
2018-06-21T15:48:57.611Z,18.07
2018-06-21T15:50:50.400Z,18.21
2018-06-21T15:51:50.320Z,18.35
2018-06-21T15:53:43.092Z,18.50
2018-06-21T15:54:43.028Z,18.51
2018-06-21T15:56:35.824Z,18.38
2018-06-21T15:57:35.744Z,18.46
2018-06-21T15:59:28.526Z,18.49
2018-06-21T16:00:28.505Z,18.53
2018-06-21T16:02:21.228Z,18.59
2018-06-21T16:03:21.165Z,18.42
2018-06-21T16:05:13.991Z,18.35
2018-06-21T16:06:13.886Z,18.28
2018-06-21T16:08:06.718Z,18.31
2018-06-21T16:09:06.624Z,18.35
2018-06-21T16:10:59.435Z,18.65
2018-06-21T16:11:59.341Z,18.66
2018-06-21T16:13:52.128Z,18.62
2018-06-21T16:14:52.162Z,18.59
2018-06-21T16:16:44.869Z,18.57
2018-06-21T16:17:44.775Z,18.50
2018-06-21T16:19:37.563Z,18.54
2018-06-21T16:20:37.501Z,18.35
2018-06-21T16:22:30.295Z,18.13
2018-06-21T16:23:30.220Z,18.20
2018-06-21T16:25:23.013Z,18.29
2018-06-21T16:26:22.927Z,18.50
2018-06-21T16:28:15.746Z,18.57
2018-06-21T16:29:15.650Z,18.57
2018-06-21T16:31:08.480Z,18.56
2018-06-21T16:32:08.392Z,18.50
2018-06-21T16:34:01.147Z,18.53
2018-06-21T16:35:01.083Z,18.41
2018-06-21T16:36:53.865Z,18.41
2018-06-21T16:37:53.792Z,18.38
2018-06-21T16:39:46.569Z,18.32
2018-06-21T16:40:46.520Z,18.29
2018-06-21T16:42:39.287Z,18.32
2018-06-21T16:43:39.216Z,18.47
2018-06-21T16:45:32.017Z,18.57
2018-06-21T16:46:31.943Z,18.66
2018-06-21T16:48:24.715Z,18.62
2018-06-21T16:49:24.648Z,18.62
2018-06-21T16:51:17.442Z,18.44
2018-06-21T16:52:17.386Z,18.41
2018-06-21T16:54:10.134Z,18.35
2018-06-21T16:55:10.072Z,18.25
2018-06-21T16:57:02.876Z,18.13
2018-06-21T16:58:02.814Z,18.11
2018-06-21T16:59:55.592Z,18.02
2018-06-21T17:00:55.583Z,18.01
2018-06-21T17:02:48.297Z,17.96
2018-06-21T17:03:48.205Z,17.83
2018-06-21T17:05:40.972Z,17.89
2018-06-21T17:06:40.907Z,17.94
2018-06-21T17:08:33.726Z,18.01
2018-06-21T17:09:33.653Z,18.01
2018-06-21T17:11:26.463Z,18.04
2018-06-21T17:12:26.380Z,17.98
2018-06-21T17:14:19.260Z,17.79
2018-06-21T17:15:19.113Z,17.70
2018-06-21T17:17:11.905Z,17.74
2018-06-21T17:18:11.854Z,17.70
2018-06-21T17:20:04.609Z,17.76
2018-06-21T17:21:04.546Z,17.58
2018-06-21T17:22:57.407Z,17.65
2018-06-21T17:23:57.293Z,17.62
2018-06-21T17:25:50.119Z,17.65
2018-06-21T17:26:50.014Z,17.58
2018-06-21T17:28:42.811Z,17.45
2018-06-21T17:29:42.741Z,17.46
2018-06-21T17:31:35.534Z,17.79
2018-06-21T17:32:35.515Z,17.74
2018-06-21T17:34:28.225Z,17.71
2018-06-21T17:35:28.168Z,17.71
2018-06-21T17:37:20.955Z,17.62
2018-06-21T17:38:20.891Z,17.57
2018-06-21T17:40:13.675Z,17.55
2018-06-21T17:41:13.612Z,17.47
2018-06-21T17:43:06.479Z,17.57
2018-06-21T17:44:06.319Z,17.53
2018-06-21T17:45:59.126Z,17.51
2018-06-21T17:46:59.050Z,17.51
2018-06-21T17:48:51.883Z,17.55
2018-06-21T17:49:51.808Z,17.63
2018-06-21T17:51:44.621Z,17.63
2018-06-21T17:52:44.561Z,17.62
2018-06-21T17:54:37.344Z,17.65
2018-06-21T17:55:37.261Z,17.62
2018-06-21T17:57:30.043Z,17.53
2018-06-21T17:58:29.964Z,17.51
2018-06-21T18:00:22.781Z,17.46
2018-06-21T18:01:22.718Z,17.39
2018-06-21T18:03:15.500Z,17.22
2018-06-21T18:04:15.430Z,17.32
2018-06-21T18:06:08.229Z,17.33
2018-06-21T18:07:08.161Z,17.40
2018-06-21T18:09:00.952Z,17.27
2018-06-21T18:10:00.879Z,17.20
2018-06-21T18:11:53.648Z,17.17
2018-06-21T18:12:53.580Z,17.20
2018-06-21T18:14:46.364Z,17.07
2018-06-21T18:15:46.291Z,17.10
2018-06-21T18:17:39.108Z,17.10
2018-06-21T18:18:39.010Z,17.06
2018-06-21T18:20:31.820Z,16.99
2018-06-21T18:21:31.733Z,16.99
2018-06-21T18:23:24.537Z,16.90
2018-06-21T18:24:24.511Z,16.85
2018-06-21T18:26:17.264Z,16.88
2018-06-21T18:27:17.189Z,16.77
2018-06-21T18:29:10.028Z,16.75
2018-06-21T18:30:09.884Z,16.78
2018-06-21T18:32:02.688Z,16.78